Terminal Aerodrome Forecast
Issued by NWS

Home | Current Version | Previous Version | Text Only | Print | Product List | Glossary Off
Versions: 1 2 3 4 5 6 7 8 9 10 11 12 13 14 15 16 17 18

334
FTUS43 KIWX 041930 AAA
TAFSBN
TAF AMD
KSBN 041930Z 0420/0518 09006KT 1/2SM SN OVC004
     FM050100 17004KT 3SM BR VCSH OVC005
     FM050300 22006KT 5SM BR OVC006
     FM050600 25008KT P6SM OVC010=

USA.gov is the U.S. government's official web portal to all federal, state and local government web resources and services.